Terminal Aerodrome Forecast
Issued by NWS

Home | Current Version | Previous Version | Graphics & Text | Print | Product List | Glossary On
Versions: 1 2 3 4 5 6 7 8 9 10 11 12 13 14 15 16 17
000
FTUS43 KICT 280520
TAFHUT
TAF
KHUT 280520Z 2806/2906 11004KT P6SM OVC015
     FM280900 11005KT 6SM BR OVC008
      TEMPO 2809/2813 3SM BR OVC004
     FM281600 11013KT P6SM OVC010
     FM281800 10014G20KT P6SM BKN020
     FM282200 10014G21KT P6SM VCSH OVC020
     FM290400 07015G23KT 6SM -SHRA VCTS OVC020CB=

USA.gov is the U.S. government's official web portal to all federal, state and local government web resources and services.